createdAt,value
2019-05-13T00:00:53.858Z,86.40
2019-05-13T00:03:23.972Z,85.80
2019-05-13T00:05:53.737Z,86.50
2019-05-13T00:08:24.899Z,86.60
2019-05-13T00:10:54.405Z,86.70
2019-05-13T00:13:23.871Z,87.00
2019-05-13T00:15:54.376Z,87.10
2019-05-13T00:18:23.792Z,86.30
2019-05-13T00:20:54.198Z,85.50
2019-05-13T00:23:23.800Z,85.90
2019-05-13T00:25:54.533Z,86.50
2019-05-13T00:28:23.998Z,87.30
2019-05-13T00:30:54.303Z,88.20
2019-05-13T00:33:24.331Z,88.00
2019-05-13T00:35:53.883Z,87.30
2019-05-13T00:38:24.555Z,87.00
2019-05-13T00:40:54.717Z,86.30
2019-05-13T00:43:24.518Z,87.00
2019-05-13T00:45:53.906Z,87.90
2019-05-13T00:48:23.497Z,87.40
2019-05-13T00:50:54.490Z,87.00
2019-05-13T00:53:24.018Z,87.00
2019-05-13T00:55:53.760Z,86.80
2019-05-13T00:58:24.149Z,87.40
2019-05-13T01:00:54.607Z,87.10
2019-05-13T01:03:27.807Z,86.70
2019-05-13T01:05:55.187Z,86.80
2019-05-13T01:08:25.386Z,86.20
2019-05-13T01:10:54.879Z,86.40
2019-05-13T01:13:24.194Z,86.60
2019-05-13T01:15:54.428Z,86.80
2019-05-13T01:18:23.911Z,87.10
2019-05-13T01:20:53.891Z,87.10
2019-05-13T01:23:24.073Z,87.30
2019-05-13T01:25:54.501Z,86.80
2019-05-13T01:28:24.198Z,85.60
2019-05-13T01:30:54.074Z,84.70
2019-05-13T01:33:23.711Z,83.50
2019-05-13T01:35:53.891Z,86.10
2019-05-13T01:38:24.074Z,85.50
2019-05-13T01:40:54.032Z,84.90
2019-05-13T01:43:24.443Z,85.60
2019-05-13T01:45:53.943Z,85.00
2019-05-13T01:48:24.076Z,85.40
2019-05-13T01:50:53.629Z,85.70
2019-05-13T01:53:24.351Z,86.50
2019-05-13T01:55:53.953Z,86.80
2019-05-13T01:58:23.723Z,86.70
2019-05-13T02:00:55.240Z,86.50
2019-05-13T02:03:24.760Z,86.40
2019-05-13T02:05:54.555Z,86.40
2019-05-13T02:08:24.510Z,85.80
2019-05-13T02:10:55.315Z,86.30
2019-05-13T02:13:25.412Z,86.40
2019-05-13T02:15:55.851Z,86.20
2019-05-13T02:18:25.186Z,86.80
2019-05-13T02:20:55.794Z,86.70
2019-05-13T02:23:25.433Z,86.50
2019-05-13T02:25:55.017Z,86.20
2019-05-13T02:28:25.232Z,86.20
2019-05-13T02:30:56.587Z,86.70
2019-05-13T02:33:25.994Z,86.80
2019-05-13T02:35:55.614Z,86.60
2019-05-13T02:38:30.361Z,87.00
2019-05-13T02:40:55.975Z,87.00
2019-05-13T02:43:25.279Z,85.90
2019-05-13T02:45:54.847Z,85.50
2019-05-13T02:48:24.493Z,85.30
2019-05-13T02:50:54.619Z,85.60
2019-05-13T02:53:24.550Z,85.80
2019-05-13T02:55:54.470Z,86.10
2019-05-13T02:58:25.191Z,86.00
2019-05-13T03:00:54.839Z,85.80
2019-05-13T03:03:24.231Z,85.60
2019-05-13T03:05:54.199Z,85.60
2019-05-13T03:08:39.099Z,84.00
2019-05-13T03:10:54.926Z,84.40
2019-05-13T03:13:24.421Z,86.00
2019-05-13T03:15:57.975Z,86.60
2019-05-13T03:18:27.459Z,86.90
2019-05-13T03:20:56.789Z,86.90
2019-05-13T03:23:26.096Z,86.90
2019-05-13T03:25:55.423Z,86.80
2019-05-13T03:28:24.725Z,87.20
2019-05-13T03:30:56.299Z,87.60
2019-05-13T03:33:27.852Z,87.40
2019-05-13T03:35:56.768Z,87.60
2019-05-13T03:38:26.648Z,87.50
2019-05-13T03:40:57.589Z,87.20
2019-05-13T03:43:32.486Z,86.70
2019-05-13T03:46:03.333Z,86.80
2019-05-13T03:48:35.691Z,87.00
2019-05-13T03:51:05.173Z,89.50
2019-05-13T03:53:34.576Z,90.60
2019-05-13T03:56:04.311Z,90.30
2019-05-13T03:58:33.780Z,88.60
2019-05-13T04:01:03.196Z,83.80
2019-05-13T04:03:33.343Z,82.50
2019-05-13T04:06:03.805Z,83.10
2019-05-13T04:08:33.446Z,84.50
2019-05-13T04:11:03.188Z,85.20
2019-05-13T04:13:33.685Z,88.00
2019-05-13T04:16:04.159Z,88.30
2019-05-13T04:18:33.755Z,85.80
2019-05-13T04:21:03.173Z,87.40
2019-05-13T04:23:32.794Z,88.50
2019-05-13T04:26:03.187Z,88.10
2019-05-13T04:28:33.394Z,87.90
2019-05-13T04:31:03.839Z,85.10
2019-05-13T04:33:33.699Z,84.60
2019-05-13T04:36:03.203Z,84.80
2019-05-13T04:38:33.316Z,85.10
2019-05-13T04:41:03.968Z,84.20
2019-05-13T04:43:34.686Z,84.90
2019-05-13T04:46:04.477Z,85.80
2019-05-13T04:48:34.266Z,84.60
2019-05-13T04:51:03.688Z,84.20
2019-05-13T04:53:33.677Z,84.30
2019-05-13T04:56:03.596Z,84.00
2019-05-13T04:58:33.011Z,84.00
2019-05-13T05:01:23.651Z,84.20
2019-05-13T05:04:28.169Z,84.60
2019-05-13T05:07:16.397Z,83.90
2019-05-13T05:10:15.977Z,82.30
2019-05-13T05:12:43.697Z,80.80
2019-05-13T05:15:38.542Z,80.60
2019-05-13T05:18:52.846Z,80.20
2019-05-13T05:21:47.594Z,80.50
2019-05-13T05:24:47.125Z,81.10
2019-05-13T05:27:43.357Z,81.10
2019-05-13T05:30:42.298Z,81.00
2019-05-13T05:34:11.446Z,80.40
2019-05-13T05:36:52.022Z,80.80
2019-05-13T05:39:27.565Z,79.70
2019-05-13T05:41:58.708Z,79.30
2019-05-13T05:44:32.524Z,79.10
2019-05-13T05:47:03.286Z,78.50
2019-05-13T05:49:32.823Z,76.90
2019-05-13T05:52:05.653Z,75.90
2019-05-13T05:54:38.074Z,77.10
2019-05-13T05:57:08.675Z,75.10
2019-05-13T05:59:38.849Z,75.00
2019-05-13T06:02:09.003Z,74.70
2019-05-13T06:04:38.471Z,74.30
2019-05-13T06:07:08.022Z,74.70
2019-05-13T06:09:37.364Z,73.50
2019-05-13T06:12:06.661Z,73.10
2019-05-13T06:14:36.525Z,73.10
2019-05-13T06:17:05.854Z,72.20
2019-05-13T06:19:35.180Z,72.10
2019-05-13T06:22:04.732Z,71.30
2019-05-13T06:24:34.058Z,71.10
2019-05-13T06:27:03.375Z,71.00
2019-05-13T06:29:32.704Z,71.10
2019-05-13T06:32:18.191Z,69.10
2019-05-13T06:34:33.416Z,69.00
2019-05-13T06:37:02.793Z,68.50
2019-05-13T06:39:32.192Z,68.60
2019-05-13T06:42:02.692Z,69.30
2019-05-13T06:44:32.635Z,68.20
2019-05-13T06:47:02.706Z,68.00
2019-05-13T06:49:32.700Z,67.60
2019-05-13T06:52:02.230Z,67.80
2019-05-13T06:54:32.904Z,66.30
2019-05-13T06:57:05.180Z,66.50
2019-05-13T06:59:33.791Z,67.00
2019-05-13T07:02:03.092Z,67.00
2019-05-13T07:04:32.906Z,66.20
2019-05-13T07:07:12.322Z,65.20
2019-05-13T07:09:33.376Z,66.50
2019-05-13T07:12:03.483Z,65.60
2019-05-13T07:14:33.074Z,65.60
2019-05-13T07:17:02.458Z,64.60
2019-05-13T07:19:32.519Z,64.20
2019-05-13T07:22:03.085Z,63.40
2019-05-13T07:24:32.807Z,63.20
2019-05-13T07:27:02.450Z,62.70
2019-05-13T07:29:32.646Z,62.20
2019-05-13T07:32:02.309Z,63.60
2019-05-13T07:34:33.469Z,62.50
2019-05-13T07:37:03.243Z,61.60
2019-05-13T07:39:33.157Z,61.90
2019-05-13T07:42:05.340Z,62.00
2019-05-13T07:44:33.556Z,61.70
2019-05-13T07:47:03.807Z,62.20
2019-05-13T07:49:33.477Z,62.50
2019-05-13T07:52:02.869Z,62.50
2019-05-13T07:54:33.154Z,61.40
2019-05-13T07:57:02.605Z,61.70
2019-05-13T07:59:32.228Z,60.50
2019-05-13T08:02:02.419Z,60.10
2019-05-13T08:04:33.540Z,59.20
2019-05-13T08:07:03.120Z,60.00
2019-05-13T08:09:32.459Z,59.80
2019-05-13T08:12:09.904Z,58.60
2019-05-13T08:14:33.750Z,59.20
2019-05-13T08:17:03.124Z,59.00
2019-05-13T08:19:32.930Z,59.40
2019-05-13T08:22:02.615Z,59.10
2019-05-13T08:24:32.078Z,58.00
2019-05-13T08:27:02.366Z,57.20
2019-05-13T08:29:32.749Z,57.70
2019-05-13T08:32:03.159Z,58.20
2019-05-13T08:34:33.229Z,58.10
2019-05-13T08:37:03.307Z,56.70
2019-05-13T08:39:38.130Z,56.10
2019-05-13T08:42:15.108Z,57.30
2019-05-13T08:44:35.103Z,57.70
2019-05-13T08:47:04.509Z,56.80
2019-05-13T08:49:33.824Z,55.40
2019-05-13T08:52:03.167Z,55.70
2019-05-13T08:54:33.240Z,54.80
2019-05-13T08:57:03.361Z,55.40
2019-05-13T08:59:32.689Z,56.00
2019-05-13T09:02:03.348Z,54.30
2019-05-13T09:04:32.869Z,54.20
2019-05-13T09:07:02.955Z,53.30
2019-05-13T09:09:32.673Z,53.70
2019-05-13T09:12:02.787Z,51.10
2019-05-13T09:14:32.716Z,51.30
2019-05-13T09:17:02.527Z,51.40
2019-05-13T09:19:32.565Z,49.60
2019-05-13T09:22:02.884Z,48.40
2019-05-13T09:24:37.226Z,48.20
2019-05-13T09:27:03.760Z,46.30
2019-05-13T09:29:33.073Z,46.50
2019-05-13T09:32:03.690Z,45.00
2019-05-13T09:34:33.501Z,47.00
2019-05-13T09:37:03.286Z,47.30
2019-05-13T09:39:32.742Z,45.70
2019-05-13T09:42:03.019Z,45.50
2019-05-13T09:44:33.136Z,44.80
2019-05-13T09:47:02.977Z,45.20
2019-05-13T09:49:33.168Z,45.50
2019-05-13T09:52:02.721Z,46.30
2019-05-13T09:54:33.057Z,46.10
2019-05-13T09:57:02.606Z,46.00
2019-05-13T09:59:32.190Z,46.40
2019-05-13T10:02:03.121Z,45.60
2019-05-13T10:04:32.636Z,43.90
2019-05-13T10:07:02.717Z,43.60
2019-05-13T10:09:32.817Z,43.10
2019-05-13T10:12:03.518Z,44.50
2019-05-13T10:14:33.396Z,43.10
2019-05-13T10:17:06.009Z,43.40
2019-05-13T10:19:34.343Z,43.50
2019-05-13T10:22:03.998Z,43.80
2019-05-13T10:24:33.780Z,45.50
2019-05-13T10:27:03.766Z,44.80
2019-05-13T10:29:33.281Z,45.40
2019-05-13T10:32:03.420Z,44.40
2019-05-13T10:34:34.760Z,44.10
2019-05-13T10:37:04.240Z,44.30
2019-05-13T10:39:34.295Z,42.80
2019-05-13T10:42:04.078Z,42.30
2019-05-13T10:44:33.532Z,42.80
2019-05-13T10:47:02.915Z,42.60
2019-05-13T10:49:33.343Z,40.00
2019-05-13T10:52:03.299Z,40.90
2019-05-13T10:54:32.961Z,41.80
2019-05-13T10:57:03.853Z,41.80
2019-05-13T10:59:33.368Z,40.80
2019-05-13T11:02:02.740Z,41.60
2019-05-13T11:04:32.659Z,40.20
2019-05-13T11:07:03.226Z,42.20
2019-05-13T11:09:32.869Z,39.10
2019-05-13T11:12:02.393Z,38.80
2019-05-13T11:14:32.374Z,38.20
2019-05-13T11:17:01.862Z,38.40
2019-05-13T11:19:36.199Z,35.20
2019-05-13T11:22:03.031Z,32.70
2019-05-13T11:24:32.722Z,32.60
2019-05-13T11:27:02.789Z,29.70
2019-05-13T11:29:32.675Z,28.00
2019-05-13T11:32:02.941Z,27.60
2019-05-13T11:34:33.018Z,28.30
2019-05-13T11:37:03.590Z,28.00
2019-05-13T11:39:33.410Z,29.50
2019-05-13T11:42:02.825Z,30.90
2019-05-13T11:44:32.515Z,31.50
2019-05-13T11:47:02.838Z,31.40
2019-05-13T11:49:32.553Z,32.60
2019-05-13T11:52:02.865Z,33.00
2019-05-13T11:54:32.624Z,33.70
2019-05-13T11:57:06.187Z,33.60
2019-05-13T11:59:36.052Z,33.00
2019-05-13T12:02:05.796Z,32.70
2019-05-13T12:04:35.296Z,31.90
2019-05-13T12:07:04.694Z,33.10
2019-05-13T12:09:34.114Z,31.30
2019-05-13T12:12:03.663Z,30.50
2019-05-13T12:14:44.181Z,31.10
2019-05-13T12:17:04.172Z,32.20
2019-05-13T12:19:33.501Z,30.70
2019-05-13T12:22:03.100Z,31.30
2019-05-13T12:24:32.507Z,30.30
2019-05-13T12:27:03.530Z,30.50
2019-05-13T12:29:32.882Z,31.00
2019-05-13T12:32:03.238Z,30.70
2019-05-13T12:34:40.362Z,29.60
2019-05-13T12:37:04.594Z,30.50
2019-05-13T12:39:33.974Z,30.40
2019-05-13T12:42:03.648Z,30.70
2019-05-13T12:44:33.214Z,30.70
2019-05-13T12:47:03.366Z,30.40
2019-05-13T12:49:36.412Z,31.20
2019-05-13T12:52:04.688Z,29.70
2019-05-13T12:54:34.261Z,30.00
2019-05-13T12:57:03.951Z,29.50
2019-05-13T12:59:33.469Z,28.20
2019-05-13T13:02:03.530Z,31.70
2019-05-13T13:04:33.816Z,30.00
2019-05-13T13:07:03.253Z,28.90
2019-05-13T13:09:33.537Z,28.90
2019-05-13T13:12:03.107Z,28.30
2019-05-13T13:14:39.078Z,28.10
2019-05-13T13:17:04.292Z,28.70
2019-05-13T13:19:34.310Z,28.40
2019-05-13T13:22:07.606Z,29.10
2019-05-13T13:24:34.682Z,30.10
2019-05-13T13:27:04.597Z,28.30
2019-05-13T13:29:34.281Z,28.30
2019-05-13T13:32:03.618Z,29.30
2019-05-13T13:34:33.894Z,28.10
2019-05-13T13:37:05.027Z,28.40
2019-05-13T13:39:34.341Z,28.10
2019-05-13T13:42:05.678Z,27.80
2019-05-13T13:44:35.250Z,27.30
2019-05-13T13:47:04.730Z,26.30
2019-05-13T13:49:35.297Z,28.50
2019-05-13T13:52:04.878Z,29.00
2019-05-13T13:54:34.152Z,29.00
2019-05-13T13:57:03.487Z,28.80
2019-05-13T13:59:35.953Z,30.50
2019-05-13T14:02:05.437Z,30.50
2019-05-13T14:04:35.121Z,28.30
2019-05-13T14:09:35.504Z,29.60
2019-05-13T14:12:04.930Z,29.00
2019-05-13T14:14:34.247Z,30.30
2019-05-13T14:17:03.602Z,29.10
2019-05-13T14:19:32.923Z,28.60
2019-05-13T14:22:02.331Z,29.40
2019-05-13T14:24:33.038Z,28.30
2019-05-13T14:27:03.121Z,26.90
2019-05-13T14:29:40.613Z,28.20
2019-05-13T14:32:03.541Z,27.00
2019-05-13T14:34:32.863Z,27.90
2019-05-13T14:37:02.264Z,27.80
2019-05-13T14:39:31.975Z,29.00
2019-05-13T14:42:02.492Z,28.90
2019-05-13T14:44:32.587Z,27.10
2019-05-13T14:47:01.998Z,28.60
2019-05-13T14:49:31.796Z,27.30
2019-05-13T14:52:01.444Z,27.60
2019-05-13T14:54:31.329Z,27.20
2019-05-13T14:57:02.422Z,28.40
2019-05-13T14:59:31.826Z,27.20
2019-05-13T15:02:01.508Z,27.00
2019-05-13T15:04:32.565Z,26.20
2019-05-13T15:07:02.099Z,26.10
2019-05-13T15:09:31.618Z,25.10
2019-05-13T15:12:02.080Z,25.60
2019-05-13T15:14:31.936Z,25.60
2019-05-13T15:17:06.896Z,25.40
2019-05-13T15:19:32.479Z,26.30
2019-05-13T15:22:02.378Z,26.30
2019-05-13T15:24:32.443Z,26.30
2019-05-13T15:27:01.782Z,26.30
2019-05-13T15:29:31.497Z,26.00
2019-05-13T15:32:02.049Z,26.00
2019-05-13T15:34:32.021Z,26.10
2019-05-13T15:37:02.127Z,27.40
2019-05-13T15:39:31.766Z,27.00
2019-05-13T15:42:02.001Z,27.10
2019-05-13T15:44:32.643Z,27.40
2019-05-13T15:47:07.195Z,26.70
2019-05-13T15:49:33.305Z,28.00
2019-05-13T15:52:04.287Z,29.10
2019-05-13T15:54:33.622Z,28.10
2019-05-13T15:57:03.099Z,27.20
2019-05-13T15:59:35.629Z,26.50
2019-05-13T16:02:04.968Z,26.60
2019-05-13T16:04:48.774Z,26.30
2019-05-13T16:07:05.577Z,26.50
2019-05-13T16:09:34.907Z,26.80
2019-05-13T16:12:04.377Z,27.40
2019-05-13T16:14:33.695Z,27.30
2019-05-13T16:17:03.028Z,27.80
2019-05-13T16:19:32.873Z,27.60
2019-05-13T16:22:02.484Z,27.50
2019-05-13T16:24:32.222Z,27.20
2019-05-13T16:27:02.502Z,27.70
2019-05-13T16:29:33.013Z,27.60
2019-05-13T16:32:02.616Z,27.10
2019-05-13T16:34:32.115Z,27.50
2019-05-13T16:37:02.028Z,27.60
2019-05-13T16:39:32.066Z,27.30
2019-05-13T16:42:01.719Z,28.50
2019-05-13T16:44:31.878Z,28.60
2019-05-13T16:47:01.670Z,29.70
2019-05-13T16:49:33.283Z,30.50
2019-05-13T16:52:02.778Z,31.60
2019-05-13T16:54:32.850Z,32.00
2019-05-13T16:57:02.667Z,32.10
2019-05-13T16:59:31.993Z,31.40
2019-05-13T17:02:01.934Z,31.50
2019-05-13T17:04:32.197Z,30.30
2019-05-13T17:07:01.834Z,29.90
2019-05-13T17:09:32.271Z,29.90
2019-05-13T17:12:01.884Z,29.30
2019-05-13T17:14:32.230Z,29.30
2019-05-13T17:17:01.728Z,30.20
2019-05-13T17:19:31.735Z,29.90
2019-05-13T17:22:02.540Z,31.30
2019-05-13T17:24:32.154Z,29.70
2019-05-13T17:27:02.550Z,29.10
2019-05-13T17:29:32.173Z,29.00
2019-05-13T17:32:02.342Z,29.30
2019-05-13T17:34:32.141Z,29.40
2019-05-13T17:37:02.698Z,29.30
2019-05-13T17:39:32.389Z,29.00
2019-05-13T17:42:01.774Z,29.00
2019-05-13T17:44:31.847Z,28.50
2019-05-13T17:47:02.018Z,29.60
2019-05-13T17:49:32.060Z,29.40
2019-05-13T17:52:02.614Z,29.90
2019-05-13T17:54:32.279Z,29.40
2019-05-13T17:57:02.074Z,30.80
2019-05-13T17:59:31.777Z,30.40
2019-05-13T18:02:02.588Z,31.10
2019-05-13T18:04:32.238Z,31.10
2019-05-13T18:07:07.444Z,30.70
2019-05-13T18:09:36.781Z,31.60
2019-05-13T18:12:06.603Z,31.00
2019-05-13T18:14:36.005Z,32.20
2019-05-13T18:17:05.421Z,31.20
2019-05-13T18:19:34.737Z,32.00
2019-05-13T18:22:04.061Z,31.60
2019-05-13T18:24:33.434Z,32.10
2019-05-13T18:27:02.752Z,32.50
2019-05-13T18:29:32.161Z,32.80
2019-05-13T18:32:02.087Z,32.50
2019-05-13T18:34:32.185Z,32.20
2019-05-13T18:37:02.643Z,31.90
2019-05-13T18:39:32.428Z,32.10
2019-05-13T18:42:01.797Z,31.30
2019-05-13T18:44:31.674Z,32.40
2019-05-13T18:47:01.687Z,32.40
2019-05-13T18:49:31.907Z,32.50
2019-05-13T18:52:01.447Z,32.90
2019-05-13T18:54:31.560Z,32.90
2019-05-13T18:57:01.714Z,33.80
2019-05-13T18:59:32.137Z,33.30
2019-05-13T19:02:01.791Z,33.10
2019-05-13T19:04:31.473Z,33.60
2019-05-13T19:07:02.310Z,33.60
2019-05-13T19:09:31.869Z,34.10
2019-05-13T19:12:01.580Z,33.60
2019-05-13T19:14:31.781Z,34.20
2019-05-13T19:17:01.268Z,34.60
2019-05-13T19:19:31.697Z,34.60
2019-05-13T19:22:02.110Z,34.90
2019-05-13T19:24:31.699Z,35.50
2019-05-13T19:27:01.682Z,35.30
2019-05-13T19:29:31.820Z,35.70
2019-05-13T19:32:01.928Z,36.30
2019-05-13T19:34:32.269Z,36.50
2019-05-13T19:37:02.499Z,36.30
2019-05-13T19:39:31.993Z,36.80
2019-05-13T19:42:03.472Z,36.60
2019-05-13T19:44:32.799Z,37.00
2019-05-13T19:47:02.207Z,37.30
2019-05-13T19:49:36.663Z,36.60
2019-05-13T19:52:02.618Z,36.90
2019-05-13T19:54:31.940Z,37.40
2019-05-13T19:57:01.556Z,37.60
2019-05-13T19:59:32.230Z,38.00
2019-05-13T20:02:01.702Z,37.80
2019-05-13T20:04:31.411Z,38.30
2019-05-13T20:07:00.967Z,38.00
2019-05-13T20:09:32.189Z,37.50
2019-05-13T20:12:02.052Z,38.50
2019-05-13T20:14:31.543Z,38.10
2019-05-13T20:17:01.596Z,38.30
2019-05-13T20:19:46.190Z,37.80
2019-05-13T20:22:02.481Z,38.50
2019-05-13T20:24:31.863Z,39.30
2019-05-13T20:27:01.685Z,39.40
2019-05-13T20:29:33.589Z,40.00
2019-05-13T20:32:02.950Z,40.40
2019-05-13T20:34:33.295Z,42.10
2019-05-13T20:37:02.643Z,41.00
2019-05-13T20:39:32.248Z,42.20
2019-05-13T20:42:01.875Z,41.90
2019-05-13T20:44:31.562Z,41.70
2019-05-13T20:47:01.534Z,42.20
2019-05-13T20:49:31.327Z,42.70
2019-05-13T20:52:00.969Z,43.40
2019-05-13T20:54:31.405Z,43.90
2019-05-13T20:57:02.049Z,43.80
2019-05-13T20:59:32.151Z,44.90
2019-05-13T21:02:02.400Z,44.80
2019-05-13T21:04:32.305Z,45.00
2019-05-13T21:07:02.257Z,46.90
2019-05-13T21:09:31.811Z,48.20
2019-05-13T21:12:01.781Z,48.50
2019-05-13T21:14:32.164Z,49.00
2019-05-13T21:17:01.604Z,49.40
2019-05-13T21:19:39.285Z,49.40
2019-05-13T21:22:02.016Z,49.60
2019-05-13T21:24:31.886Z,50.00
2019-05-13T21:27:01.969Z,51.20
2019-05-13T21:29:32.304Z,51.20
2019-05-13T21:32:01.748Z,51.80
2019-05-13T21:34:31.586Z,52.10
2019-05-13T21:37:02.312Z,52.20
2019-05-13T21:39:32.101Z,53.30
2019-05-13T21:42:02.319Z,54.80
2019-05-13T21:44:32.675Z,55.50
2019-05-13T21:47:02.379Z,54.40
2019-05-13T21:49:32.125Z,54.50
2019-05-13T21:52:01.539Z,55.90
2019-05-13T21:54:33.255Z,56.70
2019-05-13T21:57:02.343Z,57.40
2019-05-13T21:59:33.590Z,56.90
2019-05-13T22:02:03.233Z,58.30
2019-05-13T22:04:33.996Z,58.90
2019-05-13T22:07:03.371Z,58.80
2019-05-13T22:09:32.695Z,58.90
2019-05-13T22:12:02.160Z,58.90
2019-05-13T22:14:32.083Z,59.00
2019-05-13T22:17:01.863Z,59.60
2019-05-13T22:19:31.715Z,60.20
2019-05-13T22:22:02.484Z,60.20
2019-05-13T22:24:31.894Z,60.50
2019-05-13T22:27:01.994Z,61.10
2019-05-13T22:29:32.067Z,61.50
2019-05-13T22:32:02.112Z,61.40
2019-05-13T22:34:32.043Z,60.90
2019-05-13T22:37:02.480Z,60.50
2019-05-13T22:39:34.540Z,61.00
2019-05-13T22:42:03.049Z,61.20
2019-05-13T22:44:32.663Z,61.80
2019-05-13T22:47:02.570Z,62.70
2019-05-13T22:49:32.011Z,63.90
2019-05-13T22:52:01.316Z,63.70
2019-05-13T22:54:31.904Z,64.00
2019-05-13T22:57:01.495Z,64.50
2019-05-13T22:59:32.267Z,64.60
2019-05-13T23:02:01.633Z,64.40
2019-05-13T23:04:31.518Z,65.20
2019-05-13T23:07:01.369Z,64.80
2019-05-13T23:09:32.218Z,64.90
2019-05-13T23:12:01.793Z,65.00
2019-05-13T23:14:31.129Z,66.00
2019-05-13T23:17:02.209Z,65.60
2019-05-13T23:19:32.360Z,65.00
2019-05-13T23:22:01.862Z,65.70
2019-05-13T23:24:31.344Z,66.40
2019-05-13T23:27:02.125Z,66.90
2019-05-13T23:29:32.013Z,67.60
2019-05-13T23:32:01.601Z,68.60
2019-05-13T23:34:31.850Z,68.90
2019-05-13T23:37:01.299Z,69.40
2019-05-13T23:39:32.149Z,68.60
2019-05-13T23:42:01.572Z,69.50
2019-05-13T23:44:32.235Z,69.20
2019-05-13T23:47:01.637Z,69.00
2019-05-13T23:49:31.646Z,69.50
2019-05-13T23:52:02.529Z,70.20
2019-05-13T23:54:31.947Z,70.30
2019-05-13T23:57:01.325Z,70.00
2019-05-13T23:59:31.214Z,70.20
